createdAt,value
2017-07-08T00:00:15.515Z,0
2017-07-08T00:01:15.537Z,0
2017-07-08T00:02:15.604Z,0
2017-07-08T00:03:15.591Z,0
2017-07-08T00:04:15.639Z,0
2017-07-08T00:05:15.671Z,0
2017-07-08T00:06:15.711Z,0
2017-07-08T00:07:15.749Z,0
2017-07-08T00:08:15.793Z,0
2017-07-08T00:09:15.847Z,0
2017-07-08T00:10:15.868Z,0
2017-07-08T00:11:15.901Z,0
2017-07-08T00:12:15.909Z,0
2017-07-08T00:13:15.964Z,0
2017-07-08T00:14:15.996Z,0
2017-07-08T00:15:16.016Z,0
2017-07-08T00:16:16.057Z,0
2017-07-08T00:17:16.094Z,0
2017-07-08T00:18:16.139Z,0
2017-07-08T00:19:16.181Z,0
2017-07-08T00:20:16.213Z,0
2017-07-08T00:21:16.250Z,0
2017-07-08T00:22:16.293Z,0
2017-07-08T00:23:16.370Z,0
2017-07-08T00:24:16.352Z,0
2017-07-08T00:25:16.392Z,0
2017-07-08T00:26:16.438Z,0
2017-07-08T00:27:16.462Z,0
2017-07-08T00:28:16.472Z,0
2017-07-08T00:29:16.539Z,0
2017-07-08T00:30:16.569Z,0
2017-07-08T00:31:16.611Z,0
2017-07-08T00:32:16.641Z,0
2017-07-08T00:33:16.681Z,0
2017-07-08T00:34:16.698Z,0
2017-07-08T00:35:16.753Z,0
2017-07-08T00:36:16.774Z,0
2017-07-08T00:37:16.814Z,0
2017-07-08T00:38:16.864Z,0
2017-07-08T00:39:16.873Z,0
2017-07-08T00:40:16.929Z,0
2017-07-08T00:41:16.965Z,0
2017-07-08T00:42:16.997Z,0
2017-07-08T00:43:17.059Z,0
2017-07-08T00:44:17.048Z,0
2017-07-08T00:45:17.121Z,0
2017-07-08T00:46:17.151Z,0
2017-07-08T00:47:17.170Z,0
2017-07-08T00:48:17.217Z,0
2017-07-08T00:49:17.242Z,0
2017-07-08T00:50:17.294Z,0
2017-07-08T00:51:17.331Z,0
2017-07-08T00:52:17.348Z,0
2017-07-08T00:53:17.379Z,0
2017-07-08T00:54:17.413Z,0
2017-07-08T00:55:17.466Z,0
2017-07-08T00:56:17.495Z,0
2017-07-08T00:57:17.511Z,0
2017-07-08T00:58:17.564Z,0
2017-07-08T00:59:17.642Z,0
2017-07-08T01:00:17.611Z,0
2017-07-08T01:01:17.673Z,0
2017-07-08T01:02:17.696Z,0
2017-07-08T01:03:17.773Z,0
2017-07-08T01:04:17.795Z,0
2017-07-08T01:05:17.808Z,0
2017-07-08T01:06:17.848Z,0
2017-07-08T01:07:17.882Z,0
2017-07-08T01:08:17.904Z,0
2017-07-08T01:09:17.942Z,0
2017-07-08T01:10:17.996Z,0
2017-07-08T01:11:18.013Z,0
2017-07-08T01:12:18.022Z,0
2017-07-08T01:13:18.072Z,0
2017-07-08T01:14:18.135Z,0
2017-07-08T01:15:18.164Z,0
2017-07-08T01:16:18.191Z,0
2017-07-08T01:17:18.245Z,0
2017-07-08T01:18:18.272Z,0
2017-07-08T01:19:18.274Z,0
2017-07-08T01:20:18.298Z,0
2017-07-08T01:21:18.381Z,0
2017-07-08T01:22:18.387Z,0
2017-07-08T01:23:18.437Z,0
2017-07-08T01:24:18.470Z,0
2017-07-08T01:25:18.509Z,0
2017-07-08T01:26:18.551Z,0
2017-07-08T01:27:18.551Z,0
2017-07-08T01:28:18.616Z,0
2017-07-08T01:29:18.660Z,0
2017-07-08T01:30:18.697Z,0
2017-07-08T01:31:18.703Z,0
2017-07-08T01:32:18.769Z,0
2017-07-08T01:33:18.799Z,0
2017-07-08T01:34:18.805Z,0
2017-07-08T01:35:18.872Z,0
2017-07-08T01:36:18.903Z,0
2017-07-08T01:37:18.928Z,0
2017-07-08T01:38:18.973Z,0
2017-07-08T01:39:19.010Z,0
2017-07-08T01:40:19.050Z,0
2017-07-08T01:41:19.079Z,0
2017-07-08T01:42:19.126Z,0
2017-07-08T01:43:19.145Z,0
2017-07-08T01:44:19.174Z,0
2017-07-08T01:45:19.230Z,0
2017-07-08T01:46:19.254Z,0
2017-07-08T01:47:19.273Z,0
2017-07-08T01:48:19.331Z,0
2017-07-08T01:49:19.368Z,0
2017-07-08T01:50:19.394Z,0
2017-07-08T01:51:19.405Z,0
2017-07-08T01:52:19.473Z,0
2017-07-08T01:53:19.506Z,0
2017-07-08T01:54:19.506Z,0
2017-07-08T01:55:19.550Z,0
2017-07-08T01:56:19.608Z,0
2017-07-08T01:57:19.629Z,0
2017-07-08T01:58:19.713Z,0
2017-07-08T01:59:19.705Z,0
2017-07-08T02:00:19.801Z,0
2017-07-08T02:01:19.799Z,0
2017-07-08T02:02:19.840Z,0
2017-07-08T02:03:19.837Z,0
2017-07-08T02:04:19.891Z,0
2017-07-08T02:05:19.937Z,0
2017-07-08T02:06:19.944Z,0
2017-07-08T02:07:20.002Z,0
2017-07-08T02:08:20.081Z,0
2017-07-08T02:09:20.063Z,0
2017-07-08T02:10:20.098Z,0
2017-07-08T02:11:20.135Z,0
2017-07-08T02:12:20.167Z,0
2017-07-08T02:13:20.214Z,0
2017-07-08T02:14:20.231Z,0
2017-07-08T02:15:20.275Z,0
2017-07-08T02:16:20.312Z,0
2017-07-08T02:17:21.021Z,0
2017-07-08T02:18:21.209Z,0
2017-07-08T02:19:20.703Z,0
2017-07-08T02:20:21.045Z,0
2017-07-08T02:21:21.531Z,0
2017-07-08T02:22:20.716Z,0
2017-07-08T02:23:20.560Z,0
2017-07-08T02:24:21.643Z,0
2017-07-08T02:25:21.240Z,0
2017-07-08T02:26:20.704Z,0
2017-07-08T02:27:20.934Z,0
2017-07-08T02:28:21.767Z,0
2017-07-08T02:29:21.804Z,0
2017-07-08T02:30:21.008Z,0
2017-07-08T02:31:20.815Z,0
2017-07-08T02:32:20.832Z,0
2017-07-08T02:33:20.865Z,0
2017-07-08T02:34:20.926Z,0
2017-07-08T02:35:21.018Z,0
2017-07-08T02:36:21.014Z,0
2017-07-08T02:37:21.060Z,0
2017-07-08T02:38:21.092Z,0
2017-07-08T02:39:21.107Z,0
2017-07-08T02:40:21.131Z,0
2017-07-08T02:41:21.193Z,0
2017-07-08T02:42:21.227Z,0
2017-07-08T02:43:21.232Z,0
2017-07-08T02:44:21.290Z,0
2017-07-08T02:45:21.323Z,0
2017-07-08T02:46:21.380Z,0
2017-07-08T02:47:21.385Z,0
2017-07-08T02:48:21.409Z,0
2017-07-08T02:49:21.454Z,0
2017-07-08T02:50:21.489Z,0
2017-07-08T02:51:21.516Z,0
2017-07-08T02:52:21.567Z,5
2017-07-08T02:53:21.599Z,5
2017-07-08T02:54:21.636Z,5
2017-07-08T02:55:21.683Z,5
2017-07-08T02:56:21.694Z,5
2017-07-08T02:57:21.704Z,5
2017-07-08T02:58:21.785Z,5
2017-07-08T02:59:21.790Z,5
2017-07-08T03:00:21.815Z,5
2017-07-08T03:01:21.883Z,5
2017-07-08T03:02:21.915Z,5
2017-07-08T03:03:21.952Z,10
2017-07-08T03:04:21.954Z,10
2017-07-08T03:05:22.019Z,10
2017-07-08T03:06:22.055Z,10
2017-07-08T03:07:22.074Z,10
2017-07-08T03:08:22.128Z,10
2017-07-08T03:09:22.159Z,10
2017-07-08T03:10:22.375Z,10
2017-07-08T03:11:22.265Z,10
2017-07-08T03:12:22.241Z,5
2017-07-08T03:13:22.293Z,5
2017-07-08T03:14:22.312Z,5
2017-07-08T03:15:22.334Z,5
2017-07-08T03:16:22.395Z,5
2017-07-08T03:17:22.424Z,5
2017-07-08T03:18:22.468Z,5
2017-07-08T03:19:22.510Z,10
2017-07-08T03:20:22.514Z,10
2017-07-08T03:21:22.582Z,10
2017-07-08T03:22:22.592Z,10
2017-07-08T03:23:22.581Z,15
2017-07-08T03:24:22.687Z,15
2017-07-08T03:25:22.725Z,15
2017-07-08T03:26:22.725Z,20
2017-07-08T03:27:22.821Z,20
2017-07-08T03:28:22.806Z,20
2017-07-08T03:29:22.836Z,20
2017-07-08T03:30:22.938Z,25
2017-07-08T03:31:22.933Z,25
2017-07-08T03:32:22.934Z,25
2017-07-08T03:33:22.979Z,30
2017-07-08T03:34:23.028Z,30
2017-07-08T03:35:23.056Z,35
2017-07-08T03:36:23.091Z,35
2017-07-08T03:37:23.135Z,40
2017-07-08T03:38:23.173Z,40
2017-07-08T03:39:23.208Z,45
2017-07-08T03:40:23.242Z,50
2017-07-08T03:41:23.293Z,55
2017-07-08T03:42:23.306Z,60
2017-07-08T03:43:23.340Z,65
2017-07-08T03:44:23.405Z,60
2017-07-08T03:45:23.402Z,60
2017-07-08T03:46:23.459Z,65
2017-07-08T03:47:23.489Z,65
2017-07-08T03:48:23.489Z,65
2017-07-08T03:49:23.577Z,60
2017-07-08T03:50:23.580Z,55
2017-07-08T03:51:23.607Z,50
2017-07-08T03:52:23.641Z,50
2017-07-08T03:53:23.701Z,50
2017-07-08T03:54:23.733Z,50
2017-07-08T03:55:23.762Z,60
2017-07-08T03:56:23.806Z,65
2017-07-08T03:57:23.830Z,70
2017-07-08T03:58:23.872Z,80
2017-07-08T03:59:23.904Z,90
2017-07-08T04:00:27.587Z,95
2017-07-08T04:01:27.654Z,105
2017-07-08T04:02:27.699Z,115
2017-07-08T04:03:27.703Z,120
2017-07-08T04:04:27.755Z,125
2017-07-08T04:05:27.805Z,125
2017-07-08T04:06:27.825Z,125
2017-07-08T04:07:27.853Z,130
2017-07-08T04:08:27.919Z,135
2017-07-08T04:09:27.909Z,135
2017-07-08T04:10:27.959Z,140
2017-07-08T04:11:28.003Z,140
2017-07-08T04:12:28.036Z,140
2017-07-08T04:13:28.077Z,135
2017-07-08T04:14:28.233Z,135
2017-07-08T04:15:28.156Z,130
2017-07-08T04:16:28.209Z,135
2017-07-08T04:17:28.235Z,130
2017-07-08T04:18:28.260Z,130
2017-07-08T04:19:28.285Z,140
2017-07-08T04:20:28.324Z,150
2017-07-08T04:21:28.388Z,150
2017-07-08T04:22:28.423Z,155
2017-07-08T04:23:28.435Z,165
2017-07-08T04:24:28.419Z,175
2017-07-08T04:25:28.526Z,190
2017-07-08T04:26:28.554Z,190
2017-07-08T04:27:28.607Z,210
2017-07-08T04:28:28.671Z,215
2017-07-08T04:29:28.631Z,235
2017-07-08T04:30:28.740Z,245
2017-07-08T04:31:28.973Z,250
2017-07-08T04:32:28.742Z,270
2017-07-08T04:33:28.860Z,255
2017-07-08T04:34:28.862Z,250
2017-07-08T04:35:28.868Z,265
2017-07-08T04:36:28.931Z,270
2017-07-08T04:37:28.936Z,270
2017-07-08T04:38:29.105Z,285
2017-07-08T04:39:29.031Z,290
2017-07-08T04:40:29.036Z,270
2017-07-08T04:41:29.074Z,250
2017-07-08T04:42:29.213Z,230
2017-07-08T04:43:29.163Z,215
2017-07-08T04:44:29.224Z,195
2017-07-08T04:45:29.307Z,180
2017-07-08T04:46:29.254Z,160
2017-07-08T04:47:29.366Z,145
2017-07-08T04:48:29.432Z,135
2017-07-08T04:49:29.395Z,130
2017-07-08T04:50:29.512Z,125
2017-07-08T04:51:29.572Z,125
2017-07-08T04:52:29.492Z,135
2017-07-08T04:53:29.523Z,145
2017-07-08T04:54:29.639Z,150
2017-07-08T04:55:29.760Z,150
2017-07-08T04:56:29.636Z,160
2017-07-08T04:57:29.633Z,175
2017-07-08T04:58:29.813Z,190
2017-07-08T04:59:29.734Z,205
2017-07-08T05:00:29.814Z,210
2017-07-08T05:01:29.835Z,225
2017-07-08T05:02:29.872Z,225
2017-07-08T05:03:29.899Z,230
2017-07-08T05:04:29.991Z,250
2017-07-08T05:05:30.001Z,290
2017-07-08T05:06:29.977Z,320
2017-07-08T05:07:30.013Z,355
2017-07-08T05:08:30.085Z,370
2017-07-08T05:09:30.101Z,375
2017-07-08T05:10:30.202Z,400
2017-07-08T05:11:30.166Z,390
2017-07-08T05:12:30.275Z,355
2017-07-08T05:13:30.400Z,320
2017-07-08T05:14:30.280Z,320
2017-07-08T05:15:30.301Z,295
2017-07-08T05:16:30.454Z,300
2017-07-08T05:17:30.477Z,325
2017-07-08T05:18:30.442Z,340
2017-07-08T05:19:30.664Z,340
2017-07-08T05:20:30.606Z,350
2017-07-08T05:21:30.639Z,380
2017-07-08T05:22:30.712Z,415
2017-07-08T05:23:30.594Z,435
2017-07-08T05:24:30.663Z,475
2017-07-08T05:25:30.710Z,430
2017-07-08T05:26:30.810Z,415
2017-07-08T05:27:30.757Z,420
2017-07-08T05:28:30.822Z,430
2017-07-08T05:29:30.838Z,430
2017-07-08T05:30:30.860Z,415
2017-07-08T05:31:30.980Z,380
2017-07-08T05:32:31.026Z,360
2017-07-08T05:33:30.983Z,345
2017-07-08T05:34:31.002Z,330
2017-07-08T05:35:31.055Z,320
2017-07-08T05:36:31.106Z,320
2017-07-08T05:37:31.119Z,320
2017-07-08T05:38:31.224Z,320
2017-07-08T05:39:31.871Z,325
2017-07-08T05:40:31.278Z,330
2017-07-08T05:41:31.309Z,325
2017-07-08T05:42:31.352Z,305
2017-07-08T05:43:31.589Z,300
2017-07-08T05:44:31.417Z,285
2017-07-08T05:45:31.642Z,275
2017-07-08T05:46:31.777Z,270
2017-07-08T05:47:31.686Z,270
2017-07-08T05:48:31.642Z,275
2017-07-08T05:49:31.955Z,270
2017-07-08T05:50:31.611Z,255
2017-07-08T05:51:31.661Z,245
2017-07-08T05:52:31.682Z,230
2017-07-08T05:53:31.876Z,230
2017-07-08T05:54:31.744Z,225
2017-07-08T05:55:31.886Z,235
2017-07-08T05:56:31.849Z,245
2017-07-08T05:57:31.888Z,255
2017-07-08T05:58:32.017Z,265
2017-07-08T05:59:31.972Z,280
2017-07-08T06:00:32.095Z,295
2017-07-08T06:01:32.163Z,285
2017-07-08T06:02:32.112Z,285
2017-07-08T06:03:32.111Z,270
2017-07-08T06:04:32.144Z,255
2017-07-08T06:05:32.184Z,240
2017-07-08T06:06:32.282Z,230
2017-07-08T06:07:32.274Z,220
2017-07-08T06:08:32.307Z,205
2017-07-08T06:09:32.406Z,200
2017-07-08T06:10:32.326Z,195
2017-07-08T06:11:32.416Z,205
2017-07-08T06:12:32.478Z,210
2017-07-08T06:13:32.466Z,210
2017-07-08T06:14:32.577Z,200
2017-07-08T06:15:32.576Z,195
2017-07-08T06:16:32.554Z,200
2017-07-08T06:17:32.706Z,215
2017-07-08T06:18:32.656Z,235
2017-07-08T06:19:32.928Z,240
2017-07-08T06:20:32.748Z,245
2017-07-08T06:21:32.735Z,240
2017-07-08T06:22:32.954Z,240
2017-07-08T06:23:32.842Z,230
2017-07-08T06:24:33.092Z,230
2017-07-08T06:25:32.979Z,220
2017-07-08T06:26:32.968Z,220
2017-07-08T06:27:32.977Z,225
2017-07-08T06:28:33.044Z,235
2017-07-08T06:29:33.121Z,235
2017-07-08T06:30:33.121Z,240
2017-07-08T06:31:33.145Z,245
2017-07-08T06:32:33.255Z,235
2017-07-08T06:33:33.248Z,245
2017-07-08T06:34:33.353Z,260
2017-07-08T06:35:33.398Z,265
2017-07-08T06:36:33.525Z,260
2017-07-08T06:37:33.350Z,255
2017-07-08T06:38:33.403Z,255
2017-07-08T06:39:33.499Z,250
2017-07-08T06:40:33.514Z,250
2017-07-08T06:41:33.523Z,245
2017-07-08T06:42:33.620Z,245
2017-07-08T06:43:33.686Z,240
2017-07-08T06:44:33.806Z,245
2017-07-08T06:45:33.652Z,250
2017-07-08T06:46:33.702Z,245
2017-07-08T06:47:33.824Z,235
2017-07-08T06:48:33.780Z,225
2017-07-08T06:49:33.840Z,220
2017-07-08T06:50:33.849Z,220
2017-07-08T06:51:33.857Z,220
2017-07-08T06:52:34.021Z,220
2017-07-08T06:53:33.964Z,225
2017-07-08T06:54:33.984Z,235
2017-07-08T06:55:34.092Z,250
2017-07-08T06:56:34.074Z,260
2017-07-08T06:57:34.130Z,255
2017-07-08T06:58:34.195Z,240
2017-07-08T06:59:34.494Z,235
2017-07-08T07:00:34.193Z,230
2017-07-08T07:01:34.344Z,220
2017-07-08T07:02:34.321Z,215
2017-07-08T07:03:34.339Z,205
2017-07-08T07:04:34.367Z,205
2017-07-08T07:05:34.442Z,205
2017-07-08T07:06:34.569Z,210
2017-07-08T07:07:34.501Z,215
2017-07-08T07:08:34.491Z,220
2017-07-08T07:09:34.644Z,225
2017-07-08T07:10:34.664Z,230
2017-07-08T07:11:34.761Z,235
2017-07-08T07:12:34.939Z,245
2017-07-08T07:13:34.709Z,250
2017-07-08T07:14:34.735Z,260
2017-07-08T07:15:34.871Z,260
2017-07-08T07:16:34.863Z,265
2017-07-08T07:17:34.904Z,265
2017-07-08T07:18:34.903Z,255
2017-07-08T07:19:34.902Z,240
2017-07-08T07:20:35.188Z,240
2017-07-08T07:21:34.963Z,235
2017-07-08T07:22:35.031Z,230
2017-07-08T07:23:35.215Z,225
2017-07-08T07:24:35.302Z,225
2017-07-08T07:25:35.409Z,225
2017-07-08T07:26:35.162Z,225
2017-07-08T07:27:35.254Z,225
2017-07-08T07:28:35.490Z,225
2017-07-08T07:29:35.356Z,235
2017-07-08T07:30:35.312Z,250
2017-07-08T07:31:35.391Z,265
2017-07-08T07:32:35.472Z,280
2017-07-08T07:33:35.708Z,285
2017-07-08T07:34:35.618Z,290
2017-07-08T07:35:35.499Z,285
2017-07-08T07:36:35.543Z,300
2017-07-08T07:37:35.572Z,310
2017-07-08T07:38:35.589Z,315
2017-07-08T07:39:35.731Z,315
2017-07-08T07:40:35.707Z,320
2017-07-08T07:41:35.756Z,330
2017-07-08T07:42:36.025Z,320
2017-07-08T07:43:35.847Z,320
2017-07-08T07:44:35.812Z,315
2017-07-08T07:45:35.865Z,315
2017-07-08T07:46:35.950Z,315
2017-07-08T07:47:35.925Z,315
2017-07-08T07:48:35.976Z,315
2017-07-08T07:49:36.066Z,315
2017-07-08T07:50:36.062Z,315
2017-07-08T07:51:36.119Z,320
2017-07-08T07:52:36.229Z,335
2017-07-08T07:53:36.163Z,330
2017-07-08T07:54:36.174Z,330
2017-07-08T07:55:36.236Z,330
2017-07-08T07:56:36.413Z,330
2017-07-08T07:57:36.430Z,315
2017-07-08T07:58:36.403Z,270
2017-07-08T07:59:36.369Z,265
2017-07-08T08:00:36.443Z,285
2017-07-08T08:01:36.461Z,295
2017-07-08T08:02:36.514Z,310
2017-07-08T08:03:36.640Z,320
2017-07-08T08:04:36.733Z,335
2017-07-08T08:05:36.704Z,320
2017-07-08T08:06:36.635Z,320
2017-07-08T08:07:36.727Z,325
2017-07-08T08:08:36.781Z,325
2017-07-08T08:09:36.820Z,345
2017-07-08T08:10:36.828Z,345
2017-07-08T08:11:36.859Z,340
2017-07-08T08:12:36.954Z,305
2017-07-08T08:13:36.909Z,345
2017-07-08T08:14:37.040Z,385
2017-07-08T08:15:36.976Z,370
2017-07-08T08:16:37.037Z,325
2017-07-08T08:17:37.059Z,300
2017-07-08T08:18:37.169Z,385
2017-07-08T08:19:37.166Z,405
2017-07-08T08:20:37.209Z,405
2017-07-08T08:21:37.270Z,375
2017-07-08T08:22:37.233Z,395
2017-07-08T08:23:37.314Z,415
2017-07-08T08:24:37.314Z,420
2017-07-08T08:25:37.354Z,435
2017-07-08T08:26:37.352Z,450
2017-07-08T08:27:37.525Z,485
2017-07-08T08:28:37.470Z,520
2017-07-08T08:29:37.510Z,535
2017-07-08T08:30:37.530Z,545
2017-07-08T08:31:37.654Z,555
2017-07-08T08:32:37.649Z,535
2017-07-08T08:33:37.699Z,525
2017-07-08T08:34:37.847Z,515
2017-07-08T08:35:37.911Z,520
2017-07-08T08:36:38.861Z,525
2017-07-08T08:37:38.064Z,555
2017-07-08T08:38:38.083Z,585
2017-07-08T08:39:37.963Z,615
2017-07-08T08:40:37.919Z,695
2017-07-08T08:41:38.386Z,675
2017-07-08T08:42:38.031Z,610
2017-07-08T08:43:38.101Z,625
2017-07-08T08:44:38.293Z,630
2017-07-08T08:45:38.150Z,500
2017-07-08T08:46:38.240Z,485
2017-07-08T08:47:38.186Z,475
2017-07-08T08:48:38.356Z,545
2017-07-08T08:49:38.383Z,515
2017-07-08T08:50:38.406Z,535
2017-07-08T08:51:38.331Z,530
2017-07-08T08:52:38.498Z,470
2017-07-08T08:53:38.578Z,535
2017-07-08T08:54:38.460Z,615
2017-07-08T08:55:38.535Z,710
2017-07-08T08:56:38.611Z,945
2017-07-08T08:57:38.572Z,1045
2017-07-08T08:58:38.702Z,915
2017-07-08T08:59:38.609Z,835
2017-07-08T09:00:39.095Z,850
2017-07-08T09:01:38.830Z,870
2017-07-08T09:02:38.768Z,720
2017-07-08T09:03:39.067Z,615
2017-07-08T09:04:38.939Z,475
2017-07-08T09:05:38.931Z,435
2017-07-08T09:06:38.917Z,380
2017-07-08T09:07:38.952Z,285
2017-07-08T09:08:39.280Z,300
2017-07-08T09:09:39.052Z,400
2017-07-08T09:10:39.120Z,440
2017-07-08T09:11:39.139Z,375
2017-07-08T09:12:39.367Z,505
2017-07-08T09:13:39.197Z,445
2017-07-08T09:14:39.358Z,390
2017-07-08T09:15:39.390Z,395
2017-07-08T09:16:39.291Z,410
2017-07-08T09:17:39.324Z,445
2017-07-08T09:18:39.648Z,535
2017-07-08T09:19:39.408Z,565
2017-07-08T09:20:39.789Z,590
2017-07-08T09:21:39.591Z,605
2017-07-08T09:22:39.525Z,595
2017-07-08T09:23:39.661Z,580
2017-07-08T09:24:39.732Z,570
2017-07-08T09:25:39.693Z,570
2017-07-08T09:26:39.683Z,555
2017-07-08T09:27:39.730Z,540
2017-07-08T09:28:39.790Z,530
2017-07-08T09:29:39.797Z,570
2017-07-08T09:30:39.864Z,630
2017-07-08T09:31:39.934Z,670
2017-07-08T09:32:40.001Z,705
2017-07-08T09:33:39.941Z,735
2017-07-08T09:34:40.080Z,765
2017-07-08T09:35:40.301Z,730
2017-07-08T09:36:40.041Z,560
2017-07-08T09:37:40.209Z,455
2017-07-08T09:38:40.134Z,485
2017-07-08T09:39:40.267Z,445
2017-07-08T09:40:40.223Z,385
2017-07-08T09:41:40.260Z,405
2017-07-08T09:42:40.262Z,440
2017-07-08T09:43:40.298Z,400
2017-07-08T09:44:40.360Z,395
2017-07-08T09:45:40.470Z,445
2017-07-08T09:46:40.890Z,500
2017-07-08T09:47:40.447Z,510
2017-07-08T09:48:40.521Z,580
2017-07-08T09:49:40.787Z,620
2017-07-08T09:50:40.581Z,630
2017-07-08T09:51:40.593Z,580
2017-07-08T09:52:40.842Z,480
2017-07-08T09:53:40.725Z,425
2017-07-08T09:54:40.806Z,355
2017-07-08T09:55:40.752Z,275
2017-07-08T09:56:41.179Z,280
2017-07-08T09:57:40.856Z,305
2017-07-08T09:58:40.901Z,365
2017-07-08T09:59:41.242Z,335
2017-07-08T10:00:41.018Z,355
2017-07-08T10:01:41.050Z,310
2017-07-08T10:02:41.056Z,230
2017-07-08T10:03:41.309Z,190
2017-07-08T10:04:41.234Z,205
2017-07-08T10:05:41.573Z,230
2017-07-08T10:06:41.266Z,255
2017-07-08T10:07:41.270Z,275
2017-07-08T10:08:41.334Z,295
2017-07-08T10:09:41.342Z,310
2017-07-08T10:10:41.409Z,335
2017-07-08T10:11:41.761Z,330
2017-07-08T10:12:41.693Z,260
2017-07-08T10:13:41.651Z,240
2017-07-08T10:14:41.502Z,280
2017-07-08T10:15:41.566Z,230
2017-07-08T10:16:41.599Z,215
2017-07-08T10:17:41.698Z,255
2017-07-08T10:18:41.736Z,265
2017-07-08T10:19:41.691Z,245
2017-07-08T10:20:41.952Z,250
2017-07-08T10:21:41.796Z,225
2017-07-08T10:22:41.797Z,285
2017-07-08T10:23:41.972Z,290
2017-07-08T10:24:42.006Z,295
2017-07-08T10:25:41.909Z,255
2017-07-08T10:26:42.248Z,235
2017-07-08T10:27:42.000Z,260
2017-07-08T10:28:42.076Z,310
2017-07-08T10:29:42.341Z,340
2017-07-08T10:30:42.159Z,350
2017-07-08T10:31:42.203Z,355
2017-07-08T10:32:42.184Z,355
2017-07-08T10:33:42.402Z,365
2017-07-08T10:34:42.499Z,380
2017-07-08T10:35:42.334Z,395
2017-07-08T10:36:42.362Z,400
2017-07-08T10:37:42.381Z,400
2017-07-08T10:38:42.497Z,395
2017-07-08T10:39:42.876Z,405
2017-07-08T10:40:42.789Z,420
2017-07-08T10:41:42.607Z,455
2017-07-08T10:42:42.613Z,515
2017-07-08T10:43:42.641Z,570
2017-07-08T10:44:42.775Z,685
2017-07-08T10:45:42.661Z,755
2017-07-08T10:46:42.777Z,765
2017-07-08T10:47:42.814Z,785
2017-07-08T10:48:42.835Z,735
2017-07-08T10:49:42.843Z,705
2017-07-08T10:50:43.068Z,670
2017-07-08T10:51:43.149Z,740
2017-07-08T10:52:43.395Z,865
2017-07-08T10:53:44.868Z,745
2017-07-08T10:54:43.092Z,845
2017-07-08T10:55:43.130Z,815
2017-07-08T10:56:43.121Z,630
2017-07-08T10:57:43.175Z,680
2017-07-08T10:58:43.178Z,730
2017-07-08T10:59:43.826Z,700
2017-07-08T11:00:43.258Z,720
2017-07-08T11:01:43.421Z,750
2017-07-08T11:02:43.326Z,795
2017-07-08T11:03:43.430Z,750
2017-07-08T11:04:43.583Z,725
2017-07-08T11:05:43.482Z,670
2017-07-08T11:06:43.656Z,735
2017-07-08T11:07:43.726Z,770
2017-07-08T11:08:43.543Z,765
2017-07-08T11:09:43.709Z,755
2017-07-08T11:10:43.663Z,655
2017-07-08T11:11:43.900Z,545
2017-07-08T11:12:43.775Z,605
2017-07-08T11:13:43.855Z,645
2017-07-08T11:14:43.812Z,700
2017-07-08T11:15:43.936Z,630
2017-07-08T11:16:43.913Z,535
2017-07-08T11:17:44.031Z,400
2017-07-08T11:18:44.151Z,420
2017-07-08T11:19:44.048Z,415
2017-07-08T11:20:44.035Z,460
2017-07-08T11:21:44.141Z,445
2017-07-08T11:22:44.141Z,515
2017-07-08T11:23:44.146Z,590
2017-07-08T11:24:44.167Z,625
2017-07-08T11:25:45.907Z,575
2017-07-08T11:26:44.424Z,555
2017-07-08T11:27:44.691Z,550
2017-07-08T11:28:44.359Z,675
2017-07-08T11:29:44.378Z,780
2017-07-08T11:30:44.439Z,750
2017-07-08T11:31:44.422Z,820
2017-07-08T11:32:44.466Z,790
2017-07-08T11:33:44.783Z,680
2017-07-08T11:34:44.974Z,750
2017-07-08T11:35:44.628Z,595
2017-07-08T11:36:44.646Z,535
2017-07-08T11:37:44.902Z,835
2017-07-08T11:38:45.460Z,885
2017-07-08T11:39:45.117Z,820
2017-07-08T11:40:45.214Z,785
2017-07-08T11:41:45.089Z,660
2017-07-08T11:42:44.855Z,635
2017-07-08T11:43:44.986Z,685
2017-07-08T11:44:44.996Z,655
2017-07-08T11:45:44.998Z,660
2017-07-08T11:46:45.297Z,580
2017-07-08T11:47:45.145Z,560
2017-07-08T11:48:45.339Z,580
2017-07-08T11:49:45.575Z,685
2017-07-08T11:50:45.702Z,690
2017-07-08T11:51:45.269Z,520
2017-07-08T11:52:45.251Z,430
2017-07-08T11:53:45.547Z,360
2017-07-08T11:54:45.579Z,330
2017-07-08T11:55:45.408Z,415
2017-07-08T11:56:45.767Z,370
2017-07-08T11:57:45.476Z,360
2017-07-08T11:58:45.969Z,475
2017-07-08T11:59:45.877Z,475
2017-07-08T12:00:45.900Z,485
2017-07-08T12:01:45.654Z,445
2017-07-08T12:02:45.716Z,465
2017-07-08T12:03:45.847Z,530
2017-07-08T12:04:45.996Z,460
2017-07-08T12:05:45.771Z,405
2017-07-08T12:06:45.906Z,435
2017-07-08T12:07:45.860Z,390
2017-07-08T12:08:45.919Z,435
2017-07-08T12:09:45.989Z,430
2017-07-08T12:10:45.966Z,445
2017-07-08T12:11:46.036Z,425
2017-07-08T12:12:46.166Z,390
2017-07-08T12:13:46.112Z,375
2017-07-08T12:14:46.466Z,445
2017-07-08T12:15:46.459Z,420
2017-07-08T12:16:46.265Z,425
2017-07-08T12:17:46.477Z,455
2017-07-08T12:18:46.548Z,485
2017-07-08T12:19:46.538Z,535
2017-07-08T12:20:46.477Z,590
2017-07-08T12:21:46.413Z,490
2017-07-08T12:22:46.465Z,470
2017-07-08T12:23:46.894Z,470
2017-07-08T12:24:46.633Z,495
2017-07-08T12:25:46.554Z,460
2017-07-08T12:26:46.628Z,495
2017-07-08T12:27:46.668Z,375
2017-07-08T12:28:46.699Z,400
2017-07-08T12:29:47.068Z,430
2017-07-08T12:30:47.001Z,400
2017-07-08T12:31:46.835Z,410
2017-07-08T12:32:46.829Z,415
2017-07-08T12:33:46.907Z,345
2017-07-08T12:34:47.139Z,320
2017-07-08T12:35:46.973Z,380
2017-07-08T12:36:47.046Z,440
2017-07-08T12:37:47.038Z,395
2017-07-08T12:38:47.060Z,375
2017-07-08T12:39:47.309Z,345
2017-07-08T12:40:47.244Z,330
2017-07-08T12:41:47.478Z,325
2017-07-08T12:42:47.202Z,290
2017-07-08T12:43:47.257Z,300
2017-07-08T12:44:47.527Z,320
2017-07-08T12:45:47.546Z,330
2017-07-08T12:46:47.479Z,270
2017-07-08T12:47:47.435Z,245
2017-07-08T12:48:47.478Z,235
2017-07-08T12:49:47.475Z,230
2017-07-08T12:50:47.537Z,245
2017-07-08T12:51:47.901Z,250
2017-07-08T12:52:47.696Z,250
2017-07-08T12:53:48.377Z,225
2017-07-08T12:54:47.768Z,240
2017-07-08T12:55:47.791Z,250
2017-07-08T12:56:48.221Z,230
2017-07-08T12:57:47.771Z,290
2017-07-08T12:58:47.851Z,330
2017-07-08T12:59:48.676Z,345
2017-07-08T13:00:47.915Z,295
2017-07-08T13:01:47.952Z,255
2017-07-08T13:02:48.017Z,235
2017-07-08T13:03:48.011Z,210
2017-07-08T13:04:48.130Z,215
2017-07-08T13:05:48.111Z,240
2017-07-08T13:06:48.141Z,210
2017-07-08T13:07:48.161Z,260
2017-07-08T13:08:48.270Z,250
2017-07-08T13:09:48.297Z,310
2017-07-08T13:10:48.291Z,290
2017-07-08T13:11:48.609Z,285
2017-07-08T13:12:48.406Z,310
2017-07-08T13:13:48.386Z,360
2017-07-08T13:14:48.429Z,335
2017-07-08T13:15:48.723Z,335
2017-07-08T13:16:48.624Z,280
2017-07-08T13:17:48.597Z,290
2017-07-08T13:18:48.791Z,305
2017-07-08T13:19:48.745Z,335
2017-07-08T13:20:49.032Z,360
2017-07-08T13:21:48.870Z,320
2017-07-08T13:22:49.040Z,320
2017-07-08T13:23:49.001Z,340
2017-07-08T13:24:48.965Z,345
2017-07-08T13:25:48.868Z,320
2017-07-08T13:26:49.132Z,330
2017-07-08T13:27:48.965Z,300
2017-07-08T13:28:49.155Z,300
2017-07-08T13:29:49.089Z,280
2017-07-08T13:30:49.090Z,260
2017-07-08T13:31:49.090Z,205
2017-07-08T13:32:49.147Z,220
2017-07-08T13:33:49.175Z,235
2017-07-08T13:34:49.239Z,245
2017-07-08T13:35:49.292Z,235
2017-07-08T13:36:49.279Z,235
2017-07-08T13:37:49.425Z,260
2017-07-08T13:38:49.406Z,235
2017-07-08T13:39:49.420Z,240
2017-07-08T13:40:49.500Z,200
2017-07-08T13:41:49.531Z,210
2017-07-08T13:42:49.568Z,235
2017-07-08T13:43:49.575Z,215
2017-07-08T13:44:49.598Z,190
2017-07-08T13:45:49.880Z,170
2017-07-08T13:46:49.839Z,150
2017-07-08T13:47:49.702Z,155
2017-07-08T13:48:49.729Z,160
2017-07-08T13:49:50.105Z,190
2017-07-08T13:50:50.321Z,205
2017-07-08T13:51:50.186Z,185
2017-07-08T13:52:52.009Z,165
2017-07-08T13:53:50.470Z,160
2017-07-08T13:54:50.430Z,175
2017-07-08T13:55:50.493Z,165
2017-07-08T13:56:51.015Z,155
2017-07-08T13:57:51.942Z,170
2017-07-08T13:58:50.813Z,170
2017-07-08T13:59:50.697Z,155
2017-07-08T14:00:51.287Z,155